createdAt,value
2022-10-06T00:04:36.612Z,15.89
2022-10-06T00:09:38.830Z,16.02
2022-10-06T00:14:41.145Z,16.20
2022-10-06T00:19:43.484Z,16.08
2022-10-06T00:24:46.279Z,15.77
2022-10-06T00:29:48.652Z,15.77
2022-10-06T00:34:53.047Z,15.56
2022-10-06T00:39:55.944Z,15.54
2022-10-06T00:45:03.303Z,15.39
2022-10-06T00:50:06.503Z,15.25
2022-10-06T00:55:12.188Z,15.36
2022-10-06T01:00:15.016Z,15.31
2022-10-06T01:05:24.448Z,15.15
2022-10-06T01:10:26.683Z,15.18
2022-10-06T01:15:29.353Z,15.10
2022-10-06T01:20:32.498Z,15.22
2022-10-06T01:25:35.290Z,14.82
2022-10-06T01:30:44.112Z,15.03
2022-10-06T01:35:49.518Z,14.91
2022-10-06T01:40:54.055Z,14.95
2022-10-06T01:45:58.333Z,14.80
2022-10-06T01:51:01.192Z,14.83
2022-10-06T01:56:03.399Z,14.85
2022-10-06T02:01:10.110Z,14.94
2022-10-06T02:06:12.488Z,14.86
2022-10-06T02:11:14.746Z,14.49
2022-10-06T02:16:17.004Z,14.81
2022-10-06T02:21:21.997Z,14.97
2022-10-06T02:26:24.870Z,14.98
2022-10-06T02:31:27.173Z,14.94
2022-10-06T02:36:29.820Z,14.88
2022-10-06T02:41:33.069Z,14.79
2022-10-06T02:46:35.328Z,14.97
2022-10-06T02:51:37.836Z,14.96
2022-10-06T02:56:40.197Z,15.15
2022-10-06T03:01:42.556Z,15.08
2022-10-06T03:06:44.979Z,14.89
2022-10-06T03:11:47.650Z,14.90
2022-10-06T03:16:52.168Z,14.97
2022-10-06T03:21:54.418Z,14.80
2022-10-06T03:26:56.833Z,14.97
2022-10-06T03:31:59.557Z,14.87
2022-10-06T03:37:01.781Z,14.92
2022-10-06T03:42:04.087Z,15.05
2022-10-06T03:47:06.344Z,14.87
2022-10-06T03:52:08.992Z,14.89
2022-10-06T03:57:11.209Z,14.52
2022-10-06T04:02:13.602Z,14.49
2022-10-06T04:07:15.952Z,14.61
2022-10-06T04:12:18.377Z,14.43
2022-10-06T04:17:20.698Z,14.38
2022-10-06T04:22:22.961Z,14.27
2022-10-06T04:27:27.969Z,14.18
2022-10-06T04:32:30.252Z,14.13
2022-10-06T04:37:32.555Z,14.02
2022-10-06T04:42:35.456Z,13.98
2022-10-06T04:47:37.860Z,14.01
2022-10-06T04:52:40.065Z,13.95
2022-10-06T04:57:42.419Z,13.83
2022-10-06T05:02:44.757Z,13.94
2022-10-06T05:07:47.231Z,14.02
2022-10-06T05:12:49.444Z,14.20
2022-10-06T05:17:51.854Z,14.35
2022-10-06T05:22:54.039Z,14.44
2022-10-06T05:27:56.504Z,14.51
2022-10-06T05:32:58.754Z,14.37
2022-10-06T05:38:00.974Z,14.31
2022-10-06T05:43:03.354Z,14.53
2022-10-06T05:48:05.746Z,14.46
2022-10-06T05:53:08.336Z,14.54
2022-10-06T05:58:11.309Z,14.56
2022-10-06T06:03:14.871Z,14.91
2022-10-06T06:08:17.108Z,15.08
2022-10-06T06:13:25.479Z,15.27
2022-10-06T06:18:35.158Z,15.52
2022-10-06T06:23:43.047Z,15.78
2022-10-06T06:28:49.128Z,15.88
2022-10-06T06:33:53.235Z,16.13
2022-10-06T06:38:57.478Z,16.08
2022-10-06T06:44:02.650Z,16.36
2022-10-06T06:49:06.452Z,16.27
2022-10-06T06:54:10.491Z,16.63
2022-10-06T06:59:14.074Z,16.92
2022-10-06T07:04:17.502Z,17.28
2022-10-06T07:09:21.215Z,17.42
2022-10-06T07:14:33.993Z,17.55
2022-10-06T07:19:51.769Z,17.82
2022-10-06T07:25:08.169Z,18.08
2022-10-06T07:30:22.122Z,18.16
2022-10-06T07:35:25.835Z,18.33
2022-10-06T07:40:28.452Z,18.39
2022-10-06T07:45:41.969Z,18.50
2022-10-06T07:50:49.600Z,18.55
2022-10-06T07:55:52.583Z,18.79
2022-10-06T08:00:54.805Z,19.05
2022-10-06T08:06:02.539Z,19.14
2022-10-06T08:11:06.857Z,19.35
2022-10-06T08:16:18.803Z,19.63
2022-10-06T08:21:42.349Z,19.82
2022-10-06T08:26:44.676Z,20.07
2022-10-06T08:31:47.171Z,20.36
2022-10-06T08:37:08.644Z,20.51
2022-10-06T08:42:18.946Z,20.74
2022-10-06T08:47:23.823Z,20.97
2022-10-06T08:52:47.437Z,21.10
2022-10-06T08:58:08.040Z,21.18
2022-10-06T09:03:24.310Z,21.29
2022-10-06T09:08:42.590Z,21.36
2022-10-06T09:13:54.156Z,21.10
2022-10-06T09:19:09.652Z,21.49
2022-10-06T09:24:18.185Z,21.58
2022-10-06T09:29:20.711Z,21.32
2022-10-06T09:34:31.272Z,21.76
2022-10-06T09:39:38.956Z,21.48
2022-10-06T09:44:49.377Z,21.95
2022-10-06T09:50:12.793Z,21.95
2022-10-06T09:55:18.371Z,22.00
2022-10-06T10:00:36.988Z,21.78
2022-10-06T10:05:47.061Z,22.25
2022-10-06T10:10:51.295Z,22.48
2022-10-06T10:15:59.381Z,22.56
2022-10-06T10:21:08.904Z,22.53
2022-10-06T10:26:14.957Z,22.33
2022-10-06T10:31:45.284Z,22.50
2022-10-06T10:37:03.828Z,22.59
2022-10-06T10:42:25.374Z,22.32
2022-10-06T10:47:38.238Z,22.72
2022-10-06T10:52:43.835Z,22.70
2022-10-06T10:57:48.356Z,22.88
2022-10-06T11:02:55.350Z,22.99
2022-10-06T11:08:11.778Z,23.05
2022-10-06T11:13:29.507Z,23.17
2022-10-06T11:18:57.755Z,23.05
2022-10-06T11:24:43.132Z,23.29
2022-10-06T11:29:50.943Z,23.43
2022-10-06T11:34:53.830Z,23.42
2022-10-06T11:40:21.098Z,23.26
2022-10-06T11:45:36.083Z,23.47
2022-10-06T11:50:43.102Z,23.37
2022-10-06T11:55:45.460Z,23.08
2022-10-06T12:00:50.196Z,23.56
2022-10-06T12:05:57.081Z,23.57
2022-10-06T12:10:59.729Z,23.57
2022-10-06T12:22:17.474Z,23.51
2022-10-06T12:27:54.789Z,23.47
2022-10-06T12:32:59.350Z,23.43
2022-10-06T12:38:06.574Z,23.22
2022-10-06T12:43:14.874Z,23.26
2022-10-06T12:48:35.573Z,23.30
2022-10-06T12:53:46.247Z,23.24
2022-10-06T12:58:48.615Z,23.15
2022-10-06T13:03:53.473Z,23.10
2022-10-06T13:09:15.316Z,22.98
2022-10-06T13:14:17.651Z,22.84
2022-10-06T13:19:27.202Z,23.18
2022-10-06T13:24:29.542Z,23.14
2022-10-06T13:29:32.399Z,23.12
2022-10-06T13:34:36.499Z,23.47
2022-10-06T13:39:39.373Z,23.24
2022-10-06T13:44:48.600Z,23.36
2022-10-06T13:49:58.035Z,23.24
2022-10-06T13:55:02.136Z,23.35
2022-10-06T14:00:15.669Z,23.28
2022-10-06T14:05:36.792Z,22.93
2022-10-06T14:10:42.823Z,23.31
2022-10-06T14:15:53.434Z,23.28
2022-10-06T14:20:57.579Z,23.29
2022-10-06T14:26:00.294Z,23.11
2022-10-06T14:31:02.583Z,23.04
2022-10-06T14:36:05.593Z,22.91
2022-10-06T14:41:08.210Z,23.12
2022-10-06T14:46:11.875Z,23.23
2022-10-06T14:51:14.409Z,22.93
2022-10-06T14:56:17.043Z,23.24
2022-10-06T15:01:23.711Z,23.35
2022-10-06T15:06:45.049Z,23.18
2022-10-06T15:11:47.375Z,23.14
2022-10-06T15:16:50.286Z,23.18
2022-10-06T15:21:52.468Z,22.98
2022-10-06T15:27:13.245Z,22.90
2022-10-06T15:32:16.063Z,22.76
2022-10-06T15:37:20.480Z,22.61
2022-10-06T15:42:24.601Z,22.53
2022-10-06T15:47:27.390Z,22.48
2022-10-06T15:52:34.466Z,22.18
2022-10-06T15:57:37.913Z,21.81
2022-10-06T16:02:40.635Z,21.99
2022-10-06T16:07:42.946Z,21.95
2022-10-06T16:12:45.665Z,21.88
2022-10-06T16:17:48.091Z,21.79
2022-10-06T16:22:50.279Z,21.37
2022-10-06T16:27:52.493Z,21.30
2022-10-06T16:32:54.754Z,21.10
2022-10-06T16:37:57.053Z,21.23
2022-10-06T16:42:59.899Z,21.14
2022-10-06T16:48:02.114Z,20.86
2022-10-06T16:53:04.453Z,20.95
2022-10-06T16:58:06.665Z,20.76
2022-10-06T17:03:09.083Z,20.75
2022-10-06T17:08:11.370Z,20.37
2022-10-06T17:13:13.713Z,20.45
2022-10-06T17:18:16.007Z,20.29
2022-10-06T17:23:18.490Z,20.21
2022-10-06T17:28:20.939Z,20.12
2022-10-06T17:33:23.439Z,20.13
2022-10-06T17:38:28.221Z,19.85
2022-10-06T17:43:31.514Z,19.95
2022-10-06T17:48:34.146Z,19.69
2022-10-06T17:53:41.166Z,19.86
2022-10-06T17:58:46.608Z,19.88
2022-10-06T18:03:49.527Z,19.68
2022-10-06T18:08:51.889Z,19.67
2022-10-06T18:13:55.197Z,19.59
2022-10-06T18:19:03.280Z,19.48
2022-10-06T18:24:14.558Z,19.35
2022-10-06T18:29:18.650Z,19.30
2022-10-06T18:39:43.181Z,19.11
2022-10-06T18:45:03.771Z,19.12
2022-10-06T18:50:06.536Z,18.85
2022-10-06T18:55:09.198Z,18.93
2022-10-06T19:00:11.840Z,18.84
2022-10-06T19:05:14.419Z,18.80
2022-10-06T19:10:16.679Z,18.47
2022-10-06T19:15:21.052Z,18.45
2022-10-06T19:20:23.955Z,18.62
2022-10-06T19:25:27.469Z,18.38
2022-10-06T19:30:30.598Z,18.37
2022-10-06T19:35:33.391Z,18.33
2022-10-06T19:40:37.124Z,17.79
2022-10-06T19:45:39.857Z,18.21
2022-10-06T19:50:42.263Z,17.68
2022-10-06T19:55:44.563Z,18.07
2022-10-06T20:00:47.454Z,17.80
2022-10-06T20:05:49.851Z,18.02
2022-10-06T20:11:02.206Z,17.96
2022-10-06T20:16:09.055Z,17.79
2022-10-06T20:21:25.272Z,17.87
2022-10-06T20:26:39.819Z,17.68
2022-10-06T20:31:45.754Z,17.62
2022-10-06T20:36:51.878Z,17.51
2022-10-06T20:41:57.545Z,17.43
2022-10-06T20:46:59.844Z,17.42
2022-10-06T20:52:03.438Z,17.37
2022-10-06T20:57:07.079Z,17.39
2022-10-06T21:02:11.057Z,17.14
2022-10-06T21:07:13.263Z,17.08
2022-10-06T21:12:16.643Z,17.03
2022-10-06T21:17:19.320Z,16.76
2022-10-06T21:22:21.598Z,16.75
2022-10-06T21:27:23.833Z,16.67
2022-10-06T21:32:26.197Z,16.69
2022-10-06T21:37:28.440Z,16.57
2022-10-06T21:42:30.624Z,16.53
2022-10-06T21:47:32.932Z,16.46
2022-10-06T21:52:35.170Z,16.41
2022-10-06T21:57:37.349Z,16.38
2022-10-06T22:02:39.696Z,16.14
2022-10-06T22:07:42.419Z,16.16
2022-10-06T22:12:44.862Z,16.26
2022-10-06T22:17:47.370Z,16.06
2022-10-06T22:22:51.861Z,16.16
2022-10-06T22:27:54.110Z,16.06
2022-10-06T22:32:56.483Z,16.10
2022-10-06T22:37:58.992Z,15.98
2022-10-06T22:43:01.341Z,16.00
2022-10-06T22:48:03.579Z,15.99
2022-10-06T22:53:06.111Z,15.94
2022-10-06T22:58:08.519Z,15.99
2022-10-06T23:03:11.852Z,15.98
2022-10-06T23:08:14.344Z,15.79
2022-10-06T23:13:17.136Z,15.88
2022-10-06T23:18:19.483Z,15.81
2022-10-06T23:23:21.936Z,15.56
2022-10-06T23:28:24.319Z,15.59
2022-10-06T23:33:26.757Z,15.58
2022-10-06T23:38:29.276Z,15.67
2022-10-06T23:43:31.648Z,15.65
2022-10-06T23:48:33.920Z,15.65
2022-10-06T23:53:37.119Z,15.52
2022-10-06T23:58:39.416Z,15.37
